Startpagina
METAR-TAF:

METAR-TAF

Vliegvelden :

Internationale luchthaven Milaan Linate

Milaan, Italië

breedte: 45-26N, lengte: 009-17E, hoogte: 107 m

Actueel weer

Dit bericht is 18 minuten geleden gemaakt, om 04:50 UTC
Wind 4 kt uit het noorden
Temperatuur 18°C
Vochtigheid 77%
Druk 1006 hPa
Zicht 10 km of meer

METAR: LIML 060450Z AUTO 36004KT 9999 NCD 18/14 Q1006

Tijdstip: 07:08 (05:08 UTC)

Verwachting

Dit bericht is 6 uur en het 8 minuten geleden gemaakt, om 23:00 UTC
Verwachting geldig van 06 om 00 UTC tot 06 om 24 UTC
Wind 5 kt uit variabele richting
Zicht 10 km of meer
Verspreide wolken op 3000 ft
Wijzigt naar
van 06 om 08 UTC tot 06 om 10 UTC
Wind 10 kt uit het zuidoosten
Tijdelijke
van 06 om 16 UTC tot 06 om 24 UTC
Zicht: 4000 m
onweer, regen
Wijzigt naar
van 06 om 16 UTC tot 06 om 18 UTC
Wind 5 kt uit variabele richting

TAF: LIML 052300Z 0600/0624 VRB05KT 9999 SCT030 BECMG 0608/0610 14010KT TEMPO 0616/0624 4000 TSRA BECMG 0616/0618 VRB05KT

Waarnemingen en weersverwachtingen van meer dan 4000 vliegvelden (METAR en TAF).

De beschikbare stations zijn de gele en rode punten op de kaart.

Ga met uw muis naar het station om de naam te zien.

Klik dan om waarnemingen en weersverwachtingen te zien.

kaart wijzigen: klik op de groene knoppen met een zwart kruis om in te zoomen, op de groene knop met een streepje om uit te zoomen of op de groene pijlen voor aangrenzende kaarten.


METAR-TAF: